createdAt,value
2019-03-17T00:00:05.965Z,77.10
2019-03-17T00:01:05.083Z,77.10
2019-03-17T00:02:07.647Z,77.20
2019-03-17T00:03:05.723Z,77.20
2019-03-17T00:04:05.808Z,77.10
2019-03-17T00:05:08.423Z,77.20
2019-03-17T00:06:08.167Z,77.10
2019-03-17T00:07:05.329Z,77.30
2019-03-17T00:08:08.101Z,77.20
2019-03-17T00:09:05.090Z,77.10
2019-03-17T00:10:10.406Z,77.20
2019-03-17T00:11:05.475Z,77.20
2019-03-17T00:12:05.505Z,77.20
2019-03-17T00:13:05.601Z,77.20
2019-03-17T00:14:08.343Z,77.30
2019-03-17T00:15:06.859Z,77.30
2019-03-17T00:16:07.614Z,77.40
2019-03-17T00:17:05.672Z,77.40
2019-03-17T00:18:05.899Z,77.50
2019-03-17T00:19:05.055Z,77.50
2019-03-17T00:20:10.364Z,77.70
2019-03-17T00:21:05.435Z,77.60
2019-03-17T00:22:05.545Z,77.60
2019-03-17T00:23:05.583Z,77.70
2019-03-17T00:24:05.754Z,77.70
2019-03-17T00:25:10.434Z,77.70
2019-03-17T00:26:08.110Z,77.80
2019-03-17T00:27:05.062Z,77.80
2019-03-17T00:28:05.238Z,77.80
2019-03-17T00:29:10.356Z,77.90
2019-03-17T00:30:05.315Z,77.90
2019-03-17T00:31:07.962Z,78.00
2019-03-17T00:32:08.624Z,78.00
2019-03-17T00:33:05.664Z,78.00
2019-03-17T00:34:05.863Z,78.00
2019-03-17T00:35:07.535Z,78.10
2019-03-17T00:36:08.093Z,78.10
2019-03-17T00:37:07.800Z,78.10
2019-03-17T00:38:05.802Z,78.10
2019-03-17T00:39:08.377Z,78.10
2019-03-17T00:40:05.341Z,78.10
2019-03-17T00:41:05.403Z,78.10
2019-03-17T00:42:07.970Z,78.30
2019-03-17T00:43:06.059Z,78.30
2019-03-17T00:44:07.873Z,78.40
2019-03-17T00:45:05.856Z,78.40
2019-03-17T00:46:06.046Z,78.50
2019-03-17T00:47:05.335Z,78.60
2019-03-17T00:48:05.483Z,78.50
2019-03-17T00:49:05.684Z,78.70
2019-03-17T00:50:08.425Z,78.80
2019-03-17T00:51:07.960Z,78.90
2019-03-17T00:52:08.503Z,79.00
2019-03-17T00:53:05.489Z,79.00
2019-03-17T00:54:08.045Z,79.20
2019-03-17T00:55:05.016Z,79.20
2019-03-17T00:56:07.612Z,79.30
2019-03-17T00:57:10.609Z,79.30
2019-03-17T00:58:08.158Z,79.40
2019-03-17T00:59:07.737Z,79.50
2019-03-17T01:00:05.818Z,79.50
2019-03-17T01:01:07.546Z,79.60
2019-03-17T01:02:05.562Z,79.60
2019-03-17T01:03:08.307Z,79.70
2019-03-17T01:04:05.257Z,79.70
2019-03-17T01:05:05.358Z,79.70
2019-03-17T01:06:05.543Z,79.70
2019-03-17T01:07:08.212Z,79.90
2019-03-17T01:08:07.680Z,79.90
2019-03-17T01:09:08.470Z,79.90
2019-03-17T01:10:08.277Z,79.90
2019-03-17T01:11:10.250Z,79.90
2019-03-17T01:12:05.239Z,80.00
2019-03-17T01:13:05.324Z,80.00
2019-03-17T01:14:08.008Z,79.90
2019-03-17T01:15:07.514Z,80.00
2019-03-17T01:16:05.522Z,80.00
2019-03-17T01:17:05.715Z,80.00
2019-03-17T01:18:05.820Z,79.90
2019-03-17T01:19:05.903Z,79.90
2019-03-17T01:20:05.141Z,80.00
2019-03-17T01:21:05.283Z,80.10
2019-03-17T01:22:05.644Z,80.10
2019-03-17T01:23:05.778Z,80.20
2019-03-17T01:24:11.000Z,80.10
2019-03-17T01:25:05.953Z,80.10
2019-03-17T01:26:05.197Z,80.10
2019-03-17T01:27:07.791Z,80.10
2019-03-17T01:28:08.249Z,80.10
2019-03-17T01:29:07.704Z,80.10
2019-03-17T01:30:08.241Z,80.10
2019-03-17T01:31:07.761Z,80.10
2019-03-17T01:32:08.171Z,80.10
2019-03-17T01:33:05.130Z,80.10
2019-03-17T01:34:05.260Z,80.10
2019-03-17T01:35:10.351Z,80.10
2019-03-17T01:36:05.540Z,80.10
2019-03-17T01:37:08.253Z,80.10
2019-03-17T01:38:07.790Z,80.10
2019-03-17T01:39:08.209Z,80.20
2019-03-17T01:40:07.670Z,80.10
2019-03-17T01:41:08.251Z,80.20
2019-03-17T01:42:05.250Z,80.20
2019-03-17T01:43:05.314Z,80.10
2019-03-17T01:44:08.571Z,80.20
2019-03-17T01:45:05.547Z,80.20
2019-03-17T01:46:08.293Z,80.20
2019-03-17T01:47:05.272Z,80.20
2019-03-17T01:48:05.391Z,80.30
2019-03-17T01:49:05.487Z,80.30
2019-03-17T01:50:05.567Z,80.20
2019-03-17T01:51:05.640Z,80.20
2019-03-17T01:52:08.207Z,80.30
2019-03-17T01:53:07.788Z,80.20
2019-03-17T01:54:08.331Z,80.20
2019-03-17T01:55:05.508Z,80.20
2019-03-17T01:56:08.088Z,80.10
2019-03-17T01:57:07.671Z,80.10
2019-03-17T01:58:05.819Z,80.20
2019-03-17T01:59:05.984Z,80.10
2019-03-17T02:00:12.662Z,80.00
2019-03-17T02:01:08.103Z,80.10
2019-03-17T02:02:05.080Z,80.10
2019-03-17T02:03:10.211Z,80.00
2019-03-17T02:04:05.161Z,80.00
2019-03-17T02:05:05.420Z,80.10
2019-03-17T02:06:05.678Z,80.00
2019-03-17T02:07:05.832Z,80.00
2019-03-17T02:08:08.426Z,80.00
2019-03-17T02:09:05.410Z,80.00
2019-03-17T02:10:08.048Z,80.00
2019-03-17T02:12:05.715Z,80.00
2019-03-17T02:13:08.359Z,80.00
2019-03-17T02:14:05.145Z,80.10
2019-03-17T02:15:07.783Z,80.10
2019-03-17T02:16:05.774Z,80.10
2019-03-17T02:17:07.770Z,80.10
2019-03-17T02:18:05.818Z,80.10
2019-03-17T02:19:06.001Z,80.10
2019-03-17T02:20:05.170Z,80.10
2019-03-17T02:21:05.343Z,80.10
2019-03-17T02:22:10.545Z,80.10
2019-03-17T02:23:05.551Z,80.10
2019-03-17T02:24:05.718Z,80.10
2019-03-17T02:25:08.469Z,80.10
2019-03-17T02:26:08.149Z,80.10
2019-03-17T02:27:05.096Z,80.10
2019-03-17T02:28:05.233Z,80.10
2019-03-17T02:29:05.294Z,80.10
2019-03-17T02:30:07.864Z,80.10
2019-03-17T02:31:08.373Z,80.00
2019-03-17T02:32:05.315Z,80.00
2019-03-17T02:33:07.899Z,80.00
2019-03-17T02:34:06.013Z,80.10
2019-03-17T02:35:05.136Z,80.00
2019-03-17T02:36:05.209Z,80.00
2019-03-17T02:37:10.350Z,80.00
2019-03-17T02:38:05.395Z,80.00
2019-03-17T02:39:05.563Z,80.00
2019-03-17T02:40:08.228Z,80.00
2019-03-17T02:41:05.204Z,79.90
2019-03-17T02:42:05.307Z,80.00
2019-03-17T02:43:05.462Z,79.90
2019-03-17T02:44:05.943Z,80.00
2019-03-17T02:45:07.646Z,79.80
2019-03-17T02:46:05.700Z,79.60
2019-03-17T02:47:05.741Z,79.80
2019-03-17T02:48:05.791Z,79.80
2019-03-17T02:49:06.030Z,79.70
2019-03-17T02:50:05.124Z,79.70
2019-03-17T02:51:07.740Z,79.60
2019-03-17T02:52:08.335Z,79.50
2019-03-17T02:53:07.992Z,79.50
2019-03-17T02:54:05.007Z,79.50
2019-03-17T02:55:05.121Z,79.40
2019-03-17T02:56:05.843Z,79.40
2019-03-17T02:57:05.942Z,79.40
2019-03-17T02:58:05.114Z,79.30
2019-03-17T02:59:07.891Z,79.30
2019-03-17T03:00:06.017Z,79.30
2019-03-17T03:01:07.669Z,79.30
2019-03-17T03:02:05.655Z,79.20
2019-03-17T03:03:05.953Z,79.20
2019-03-17T03:04:05.256Z,79.10
2019-03-17T03:05:05.420Z,79.10
2019-03-17T03:06:05.482Z,79.10
2019-03-17T03:07:05.565Z,79.00
2019-03-17T03:08:10.948Z,78.90
2019-03-17T03:09:05.991Z,78.90
2019-03-17T03:10:05.086Z,78.80
2019-03-17T03:11:07.748Z,78.80
2019-03-17T03:12:05.704Z,78.80
2019-03-17T03:13:05.795Z,78.70
2019-03-17T03:14:05.849Z,78.60
2019-03-17T03:15:06.156Z,78.60
2019-03-17T03:16:06.389Z,78.60
2019-03-17T03:17:08.202Z,78.40
2019-03-17T03:18:10.252Z,78.30
2019-03-17T03:19:12.788Z,78.30
2019-03-17T03:20:08.313Z,78.30
2019-03-17T03:21:05.276Z,78.30
2019-03-17T03:22:07.931Z,78.10
2019-03-17T03:23:08.601Z,78.10
2019-03-17T03:24:05.810Z,78.10
2019-03-17T03:25:05.860Z,78.10
2019-03-17T03:26:06.037Z,78.10
2019-03-17T03:27:05.157Z,78.00
2019-03-17T03:28:10.523Z,77.90
2019-03-17T03:29:05.565Z,77.90
2019-03-17T03:30:05.679Z,77.90
2019-03-17T03:31:08.379Z,78.00
2019-03-17T03:32:05.440Z,78.00
2019-03-17T03:33:08.213Z,77.90
2019-03-17T03:34:05.170Z,77.90
2019-03-17T03:35:10.490Z,77.90
2019-03-17T03:36:12.146Z,77.90
2019-03-17T03:37:05.517Z,77.90
2019-03-17T03:38:05.715Z,77.90
2019-03-17T03:39:05.942Z,77.90
2019-03-17T03:40:05.082Z,77.90
2019-03-17T03:41:07.658Z,77.90
2019-03-17T03:42:05.631Z,77.90
2019-03-17T03:43:05.789Z,77.90
2019-03-17T03:44:05.829Z,77.90
2019-03-17T03:45:06.132Z,77.90
2019-03-17T03:46:05.329Z,77.90
2019-03-17T03:47:07.946Z,77.80
2019-03-17T03:48:06.106Z,77.80
2019-03-17T03:49:05.188Z,77.80
2019-03-17T03:50:07.846Z,77.70
2019-03-17T03:51:06.093Z,77.70
2019-03-17T03:52:07.792Z,77.60
2019-03-17T03:53:05.775Z,77.60
2019-03-17T03:54:08.583Z,77.60
2019-03-17T03:55:08.147Z,77.60
2019-03-17T03:56:07.764Z,77.60
2019-03-17T03:57:05.763Z,77.40
2019-03-17T03:58:08.314Z,77.60
2019-03-17T03:59:05.294Z,77.60
2019-03-17T04:00:05.966Z,77.50
2019-03-17T04:01:05.217Z,77.40
2019-03-17T04:02:07.844Z,77.20
2019-03-17T04:03:05.833Z,77.40
2019-03-17T04:04:05.966Z,77.40
2019-03-17T04:05:07.616Z,77.10
2019-03-17T04:06:05.548Z,77.10
2019-03-17T04:07:05.667Z,77.20
2019-03-17T04:08:05.729Z,77.10
2019-03-17T04:09:05.837Z,77.10
2019-03-17T04:10:13.634Z,77.10
2019-03-17T04:11:08.272Z,77.00
2019-03-17T04:12:05.234Z,77.00
2019-03-17T04:13:07.824Z,77.00
2019-03-17T04:14:08.263Z,77.00
2019-03-17T04:15:05.270Z,76.90
2019-03-17T04:16:05.182Z,77.00
2019-03-17T04:17:05.265Z,76.90
2019-03-17T04:18:05.483Z,76.90
2019-03-17T04:19:05.702Z,76.90
2019-03-17T04:20:05.822Z,76.80
2019-03-17T04:21:05.925Z,76.90
2019-03-17T04:22:07.548Z,76.80
2019-03-17T04:23:05.509Z,76.80
2019-03-17T04:24:05.752Z,76.80
2019-03-17T04:25:05.942Z,76.80
2019-03-17T04:26:05.061Z,76.90
2019-03-17T04:27:05.136Z,76.90
2019-03-17T04:28:05.257Z,76.90
2019-03-17T04:29:10.507Z,76.90
2019-03-17T04:30:05.572Z,77.00
2019-03-17T04:31:08.196Z,77.00
2019-03-17T04:32:05.316Z,77.00
2019-03-17T04:33:05.480Z,77.00
2019-03-17T04:34:05.724Z,77.00
2019-03-17T04:35:05.958Z,77.00
2019-03-17T04:36:07.622Z,77.00
2019-03-17T04:37:05.590Z,77.00
2019-03-17T04:38:08.129Z,76.90
2019-03-17T04:39:05.229Z,76.90
2019-03-17T04:40:07.848Z,76.80
2019-03-17T04:41:10.885Z,76.80
2019-03-17T04:42:05.798Z,76.80
2019-03-17T04:43:05.931Z,76.70
2019-03-17T04:44:05.511Z,76.60
2019-03-17T04:45:05.616Z,76.50
2019-03-17T04:46:05.773Z,76.30
2019-03-17T04:47:05.832Z,76.30
2019-03-17T04:48:05.900Z,76.30
2019-03-17T04:49:04.975Z,76.30
2019-03-17T04:50:05.215Z,76.20
2019-03-17T04:51:05.464Z,76.00
2019-03-17T04:52:08.132Z,75.80
2019-03-17T04:53:07.657Z,75.80
2019-03-17T04:54:05.627Z,75.80
2019-03-17T04:55:08.230Z,75.40
2019-03-17T04:56:07.983Z,75.20
2019-03-17T04:57:06.000Z,75.20
2019-03-17T04:58:05.141Z,75.00
2019-03-17T04:59:05.379Z,74.90
2019-03-17T05:00:08.068Z,74.40
2019-03-17T05:01:05.022Z,74.40
2019-03-17T05:02:07.707Z,74.20
2019-03-17T05:03:08.170Z,74.00
2019-03-17T05:04:05.242Z,73.90
2019-03-17T05:05:05.287Z,74.00
2019-03-17T05:06:07.874Z,73.50
2019-03-17T05:07:05.936Z,73.50
2019-03-17T05:08:08.390Z,73.20
2019-03-17T05:09:05.526Z,73.20
2019-03-17T05:10:05.832Z,73.10
2019-03-17T05:11:08.858Z,73.00
2019-03-17T05:12:05.534Z,73.00
2019-03-17T05:13:05.605Z,73.00
2019-03-17T05:14:08.250Z,72.80
2019-03-17T05:15:05.364Z,72.80
2019-03-17T05:16:08.178Z,72.40
2019-03-17T05:17:07.851Z,72.40
2019-03-17T05:18:08.323Z,72.30
2019-03-17T05:19:05.356Z,72.30
2019-03-17T05:20:05.659Z,72.30
2019-03-17T05:21:05.995Z,72.30
2019-03-17T05:22:05.244Z,72.30
2019-03-17T05:23:06.516Z,72.10
2019-03-17T05:24:05.611Z,72.10
2019-03-17T05:25:08.700Z,72.10
2019-03-17T05:26:05.691Z,72.20
2019-03-17T05:27:05.961Z,72.20
2019-03-17T05:28:05.073Z,72.20
2019-03-17T05:29:05.254Z,72.20
2019-03-17T05:30:07.970Z,72.20
2019-03-17T05:31:06.126Z,72.30
2019-03-17T05:32:12.949Z,72.00
2019-03-17T05:33:06.003Z,72.00
2019-03-17T05:34:10.244Z,72.10
2019-03-17T05:35:10.285Z,72.00
2019-03-17T05:36:05.295Z,72.10
2019-03-17T05:37:07.123Z,72.10
2019-03-17T05:38:05.338Z,72.00
2019-03-17T05:39:05.500Z,71.80
2019-03-17T05:40:05.905Z,71.80
2019-03-17T05:41:07.608Z,71.90
2019-03-17T05:42:05.685Z,71.70
2019-03-17T05:43:06.048Z,71.80
2019-03-17T05:44:07.873Z,71.80
2019-03-17T05:45:05.934Z,71.70
2019-03-17T05:46:08.155Z,71.90
2019-03-17T05:47:08.242Z,71.70
2019-03-17T05:48:05.502Z,71.70
2019-03-17T05:49:05.680Z,71.70
2019-03-17T05:50:05.721Z,71.60
2019-03-17T05:51:08.376Z,71.60
2019-03-17T05:52:05.475Z,71.70
2019-03-17T05:53:08.416Z,71.60
2019-03-17T05:54:05.353Z,71.60
2019-03-17T05:55:07.925Z,71.70
2019-03-17T05:56:05.980Z,71.70
2019-03-17T05:57:05.097Z,71.70
2019-03-17T05:58:05.204Z,71.60
2019-03-17T05:59:05.327Z,71.50
2019-03-17T06:00:08.013Z,71.20
2019-03-17T06:01:05.012Z,71.20
2019-03-17T06:02:05.232Z,70.90
2019-03-17T06:03:05.557Z,70.90
2019-03-17T06:04:05.248Z,70.60
2019-03-17T06:05:08.038Z,69.20
2019-03-17T06:06:05.182Z,69.20
2019-03-17T06:07:19.205Z,69.10
2019-03-17T06:08:07.736Z,68.90
2019-03-17T06:09:05.733Z,68.90
2019-03-17T06:10:08.528Z,68.30
2019-03-17T06:11:05.585Z,68.30
2019-03-17T06:12:05.781Z,68.00
2019-03-17T06:13:08.351Z,67.20
2019-03-17T06:14:05.568Z,67.20
2019-03-17T06:15:08.367Z,66.80
2019-03-17T06:16:07.895Z,66.10
2019-03-17T06:17:05.940Z,66.10
2019-03-17T06:18:07.788Z,65.40
2019-03-17T06:19:08.370Z,64.90
2019-03-17T06:20:05.305Z,64.90
2019-03-17T06:21:05.456Z,64.30
2019-03-17T06:22:05.613Z,64.00
2019-03-17T06:23:05.944Z,63.30
2019-03-17T06:24:07.710Z,62.00
2019-03-17T06:25:05.692Z,62.00
2019-03-17T06:26:05.725Z,61.50
2019-03-17T06:27:08.460Z,60.10
2019-03-17T06:28:10.580Z,59.40
2019-03-17T06:29:08.220Z,59.20
2019-03-17T06:30:05.261Z,59.20
2019-03-17T06:31:10.466Z,58.30
2019-03-17T06:32:05.488Z,58.30
2019-03-17T06:33:05.706Z,58.10
2019-03-17T06:34:16.022Z,58.00
2019-03-17T06:35:04.996Z,58.00
2019-03-17T06:36:05.297Z,57.00
2019-03-17T06:37:05.556Z,56.70
2019-03-17T06:38:08.332Z,56.40
2019-03-17T06:39:07.976Z,56.10
2019-03-17T06:40:05.978Z,56.10
2019-03-17T06:41:07.666Z,56.40
2019-03-17T06:42:08.182Z,55.90
2019-03-17T06:43:05.141Z,55.90
2019-03-17T06:44:08.167Z,55.40
2019-03-17T06:45:05.344Z,55.40
2019-03-17T06:46:07.978Z,53.90
2019-03-17T06:47:06.391Z,53.90
2019-03-17T06:48:10.715Z,52.20
2019-03-17T06:49:08.508Z,51.30
2019-03-17T06:50:05.556Z,51.20
2019-03-17T06:51:05.711Z,50.70
2019-03-17T06:52:05.733Z,50.20
2019-03-17T06:53:05.847Z,50.00
2019-03-17T06:54:05.879Z,30.40
2019-03-17T06:55:08.448Z,49.00
2019-03-17T06:56:05.327Z,49.00
2019-03-17T06:57:05.259Z,48.70
2019-03-17T06:58:05.235Z,48.80
2019-03-17T06:59:07.697Z,49.30
2019-03-17T07:00:08.068Z,48.80
2019-03-17T07:01:04.988Z,48.80
2019-03-17T07:02:05.025Z,48.80
2019-03-17T07:03:07.657Z,48.10
2019-03-17T07:04:05.633Z,47.90
2019-03-17T07:05:05.588Z,48.50
2019-03-17T07:06:08.038Z,48.40
2019-03-17T07:07:08.523Z,48.60
2019-03-17T07:08:05.463Z,48.60
2019-03-17T07:09:05.482Z,48.60
2019-03-17T07:10:05.432Z,48.30
2019-03-17T07:11:05.403Z,48.10
2019-03-17T07:12:05.372Z,48.10
2019-03-17T07:13:05.341Z,47.90
2019-03-17T07:14:07.838Z,47.70
2019-03-17T07:15:08.440Z,47.80
2019-03-17T07:16:05.332Z,47.80
2019-03-17T07:17:07.844Z,47.00
2019-03-17T07:18:08.204Z,46.30
2019-03-17T07:19:10.239Z,46.40
2019-03-17T07:20:05.141Z,46.40
2019-03-17T07:21:05.121Z,46.60
2019-03-17T07:22:05.306Z,46.70
2019-03-17T07:23:05.340Z,47.00
2019-03-17T07:24:07.867Z,47.20
2019-03-17T07:25:05.794Z,47.10
2019-03-17T07:26:08.259Z,46.70
2019-03-17T07:27:05.244Z,46.70
2019-03-17T07:28:07.855Z,46.70
2019-03-17T07:29:05.845Z,46.70
2019-03-17T07:30:08.541Z,46.30
2019-03-17T07:31:10.525Z,45.90
2019-03-17T07:32:05.351Z,45.90
2019-03-17T07:33:05.370Z,46.10
2019-03-17T07:34:05.418Z,45.90
2019-03-17T07:35:08.030Z,45.70
2019-03-17T07:36:04.946Z,45.60
2019-03-17T07:37:05.033Z,45.70
2019-03-17T07:38:07.569Z,45.70
2019-03-17T07:39:12.596Z,45.70
2019-03-17T07:40:08.210Z,45.50
2019-03-17T07:41:07.737Z,45.90
2019-03-17T07:42:08.253Z,45.70
2019-03-17T07:43:10.282Z,45.70
2019-03-17T07:44:05.259Z,45.70
2019-03-17T07:45:05.334Z,44.90
2019-03-17T07:46:05.351Z,45.00
2019-03-17T07:47:05.359Z,44.80
2019-03-17T07:48:05.296Z,44.70
2019-03-17T07:49:07.861Z,45.00
2019-03-17T07:50:05.844Z,45.00
2019-03-17T07:51:08.473Z,44.40
2019-03-17T07:52:05.404Z,44.40
2019-03-17T07:53:05.415Z,44.70
2019-03-17T07:54:05.559Z,44.70
2019-03-17T07:55:05.594Z,45.00
2019-03-17T07:56:05.671Z,45.20
2019-03-17T07:57:05.379Z,45.20
2019-03-17T07:58:07.916Z,44.60
2019-03-17T07:59:08.969Z,44.10
2019-03-17T08:00:11.026Z,44.50
2019-03-17T08:01:04.933Z,44.50
2019-03-17T08:02:05.754Z,44.30
2019-03-17T08:03:05.798Z,44.60
2019-03-17T08:04:10.969Z,44.20
2019-03-17T08:05:11.069Z,44.20
2019-03-17T08:06:05.083Z,44.20
2019-03-17T08:07:05.085Z,44.10
2019-03-17T08:08:10.280Z,44.00
2019-03-17T08:09:07.784Z,44.70
2019-03-17T08:10:05.701Z,44.80
2019-03-17T08:11:08.261Z,44.50
2019-03-17T08:12:05.257Z,44.50
2019-03-17T08:13:05.285Z,44.70
2019-03-17T08:14:07.773Z,44.10
2019-03-17T08:15:08.195Z,43.80
2019-03-17T08:16:07.743Z,44.10
2019-03-17T08:17:05.650Z,44.10
2019-03-17T08:18:05.565Z,44.10
2019-03-17T08:19:05.527Z,43.40
2019-03-17T08:20:05.519Z,43.30
2019-03-17T08:21:05.612Z,43.60
2019-03-17T08:22:05.685Z,43.70
2019-03-17T08:23:08.183Z,43.80
2019-03-17T08:24:07.515Z,44.00
2019-03-17T08:25:05.454Z,44.00
2019-03-17T08:26:05.476Z,44.20
2019-03-17T08:27:05.472Z,44.00
2019-03-17T08:28:05.700Z,43.80
2019-03-17T08:29:08.171Z,43.90
2019-03-17T08:30:04.988Z,43.90
2019-03-17T08:31:04.979Z,43.90
2019-03-17T08:32:05.000Z,44.00
2019-03-17T08:33:07.766Z,43.90
2019-03-17T08:34:13.347Z,44.20
2019-03-17T08:35:05.215Z,44.20
2019-03-17T08:36:05.198Z,44.50
2019-03-17T08:37:07.682Z,45.00
2019-03-17T08:38:05.646Z,45.00
2019-03-17T08:39:05.712Z,45.40
2019-03-17T08:40:05.750Z,45.30
2019-03-17T08:41:08.291Z,44.70
2019-03-17T08:42:07.701Z,44.50
2019-03-17T08:43:05.610Z,44.50
2019-03-17T08:44:05.560Z,44.40
2019-03-17T08:45:05.626Z,44.30
2019-03-17T08:46:05.671Z,44.20
2019-03-17T08:47:08.176Z,43.90
2019-03-17T08:48:05.034Z,43.80
2019-03-17T08:49:05.010Z,44.00
2019-03-17T08:50:07.498Z,44.60
2019-03-17T08:51:05.378Z,44.60
2019-03-17T08:52:07.984Z,44.50
2019-03-17T08:53:05.826Z,44.50
2019-03-17T08:54:10.986Z,44.60
2019-03-17T08:55:08.389Z,45.10
2019-03-17T08:56:07.951Z,45.20
2019-03-17T08:57:05.939Z,45.10
2019-03-17T08:58:07.443Z,45.60
2019-03-17T08:59:05.268Z,45.60
2019-03-17T09:00:05.335Z,45.90
2019-03-17T09:01:07.909Z,45.50
2019-03-17T09:02:08.297Z,45.60
2019-03-17T09:03:05.178Z,45.60
2019-03-17T09:04:05.208Z,45.80
2019-03-17T09:05:05.354Z,45.60
2019-03-17T09:06:07.948Z,45.20
2019-03-17T09:07:05.933Z,45.20
2019-03-17T09:08:05.059Z,45.00
2019-03-17T09:09:07.716Z,45.40
2019-03-17T09:10:05.607Z,45.40
2019-03-17T09:11:05.615Z,45.60
2019-03-17T09:12:08.145Z,46.00
2019-03-17T09:13:05.061Z,46.00
2019-03-17T09:14:05.019Z,45.80
2019-03-17T09:15:04.955Z,46.00
2019-03-17T09:16:04.915Z,46.20
2019-03-17T09:17:14.978Z,46.10
2019-03-17T09:18:07.466Z,45.30
2019-03-17T09:19:05.311Z,45.30
2019-03-17T09:20:05.389Z,45.40
2019-03-17T09:21:05.370Z,45.70
2019-03-17T09:22:07.895Z,45.00
2019-03-17T09:23:05.757Z,45.00
2019-03-17T09:24:17.713Z,44.70
2019-03-17T09:25:05.891Z,44.60
2019-03-17T09:26:06.081Z,44.70
2019-03-17T09:27:05.127Z,45.10
2019-03-17T09:28:05.221Z,45.10
2019-03-17T09:29:07.854Z,45.80
2019-03-17T09:30:05.770Z,45.80
2019-03-17T09:31:07.871Z,45.70
2019-03-17T09:32:08.460Z,45.50
2019-03-17T09:33:07.852Z,46.00
2019-03-17T09:34:08.343Z,46.00
2019-03-17T09:35:05.217Z,46.00
2019-03-17T09:36:07.708Z,45.90
2019-03-17T09:37:05.539Z,46.00
2019-03-17T09:38:05.506Z,46.00
2019-03-17T09:39:05.486Z,45.50
2019-03-17T09:40:05.460Z,45.20
2019-03-17T09:41:05.436Z,45.80
2019-03-17T09:42:05.482Z,46.00
2019-03-17T09:43:05.577Z,45.50
2019-03-17T09:44:05.913Z,45.80
2019-03-17T09:45:08.567Z,45.00
2019-03-17T09:46:05.471Z,45.00
2019-03-17T09:47:05.460Z,44.70
2019-03-17T09:48:05.472Z,44.90
2019-03-17T09:49:05.488Z,44.70
2019-03-17T09:50:08.123Z,45.10
2019-03-17T09:51:04.995Z,45.10
2019-03-17T09:52:05.002Z,45.10
2019-03-17T09:53:05.095Z,45.20
2019-03-17T09:54:05.102Z,44.80
2019-03-17T09:55:05.127Z,44.50
2019-03-17T09:56:07.788Z,45.10
2019-03-17T09:57:05.683Z,45.20
2019-03-17T09:58:08.314Z,45.90
2019-03-17T09:59:05.244Z,45.90
2019-03-17T10:00:07.849Z,45.20
2019-03-17T10:01:10.904Z,44.70
2019-03-17T10:02:05.795Z,44.70
2019-03-17T10:03:05.828Z,45.10
2019-03-17T10:04:05.862Z,45.40
2019-03-17T10:05:05.918Z,44.60
2019-03-17T10:06:05.006Z,44.60
2019-03-17T10:07:05.015Z,44.70
2019-03-17T10:08:05.065Z,44.70
2019-03-17T10:09:07.649Z,43.60
2019-03-17T10:10:05.555Z,43.70
2019-03-17T10:11:05.576Z,44.20
2019-03-17T10:12:08.088Z,43.40
2019-03-17T10:13:04.955Z,43.40
2019-03-17T10:14:07.622Z,43.40
2019-03-17T10:15:05.584Z,43.40
2019-03-17T10:16:08.071Z,43.50
2019-03-17T10:17:04.909Z,43.50
2019-03-17T10:18:05.932Z,43.70
2019-03-17T10:19:07.476Z,44.20
2019-03-17T10:20:07.934Z,44.70
2019-03-17T10:21:08.496Z,45.00
2019-03-17T10:22:08.019Z,45.30
2019-03-17T10:23:04.924Z,45.20
2019-03-17T10:24:04.966Z,44.80
2019-03-17T10:25:04.943Z,43.90
2019-03-17T10:26:04.943Z,44.00
2019-03-17T10:27:05.019Z,43.80
2019-03-17T10:28:05.052Z,44.10
2019-03-17T10:29:05.039Z,44.50
2019-03-17T10:30:05.100Z,44.70
2019-03-17T10:31:05.132Z,44.70
2019-03-17T10:32:07.631Z,45.20
2019-03-17T10:33:05.483Z,45.20
2019-03-17T10:34:05.477Z,44.80
2019-03-17T10:35:08.010Z,44.20
2019-03-17T10:36:08.431Z,44.60
2019-03-17T10:37:05.448Z,44.70
2019-03-17T10:38:07.942Z,45.10
2019-03-17T10:39:12.992Z,45.10
2019-03-17T10:40:05.096Z,44.70
2019-03-17T10:41:05.094Z,44.70
2019-03-17T10:42:05.143Z,45.00
2019-03-17T10:43:05.201Z,45.00
2019-03-17T10:44:08.123Z,44.50
2019-03-17T10:45:04.992Z,44.50
2019-03-17T10:46:05.161Z,44.50
2019-03-17T10:47:05.135Z,44.40
2019-03-17T10:48:05.131Z,44.60
2019-03-17T10:49:05.300Z,44.80
2019-03-17T10:50:05.440Z,45.60
2019-03-17T10:51:08.057Z,46.20
2019-03-17T10:52:04.915Z,46.20
2019-03-17T10:53:05.120Z,45.50
2019-03-17T10:54:05.129Z,45.00
2019-03-17T10:55:07.755Z,44.90
2019-03-17T10:56:05.675Z,44.90
2019-03-17T10:57:05.669Z,45.00
2019-03-17T10:58:05.714Z,45.10
2019-03-17T10:59:05.756Z,45.20
2019-03-17T11:00:04.919Z,44.90
2019-03-17T11:01:04.938Z,45.00
2019-03-17T11:02:04.954Z,45.30
2019-03-17T11:03:04.947Z,45.70
2019-03-17T11:04:07.455Z,45.50
2019-03-17T11:05:05.445Z,45.60
2019-03-17T11:06:08.074Z,45.90
2019-03-17T11:07:07.526Z,45.70
2019-03-17T11:08:12.961Z,45.60
2019-03-17T11:09:05.942Z,45.60
2019-03-17T11:10:07.771Z,45.10
2019-03-17T11:11:12.561Z,44.60
2019-03-17T11:12:05.413Z,44.60
2019-03-17T11:13:07.888Z,44.40
2019-03-17T11:14:08.240Z,44.50
2019-03-17T11:15:05.202Z,44.50
2019-03-17T11:16:05.330Z,44.70
2019-03-17T11:17:07.868Z,44.00
2019-03-17T11:18:05.777Z,43.90
2019-03-17T11:19:05.781Z,43.30
2019-03-17T11:20:05.833Z,43.30
2019-03-17T11:21:05.860Z,43.70
2019-03-17T11:22:05.900Z,43.80
2019-03-17T11:23:05.835Z,43.50
2019-03-17T11:24:05.867Z,43.40
2019-03-17T11:25:05.338Z,43.70
2019-03-17T11:26:10.499Z,43.50
2019-03-17T11:27:05.914Z,43.50
2019-03-17T11:28:06.095Z,43.90
2019-03-17T11:29:05.236Z,44.60
2019-03-17T11:30:05.181Z,45.20
2019-03-17T11:31:07.794Z,45.60
2019-03-17T11:32:07.141Z,45.60
2019-03-17T11:33:05.116Z,45.80
2019-03-17T11:34:05.261Z,45.50
2019-03-17T11:35:05.246Z,44.80
2019-03-17T11:36:05.178Z,44.00
2019-03-17T11:37:07.710Z,43.50
2019-03-17T11:38:05.577Z,43.60
2019-03-17T11:39:08.229Z,43.20
2019-03-17T11:40:07.631Z,43.90
2019-03-17T11:41:05.501Z,43.90
2019-03-17T11:42:08.048Z,43.70
2019-03-17T11:43:04.966Z,43.70
2019-03-17T11:44:08.019Z,44.40
2019-03-17T11:45:05.856Z,44.30
2019-03-17T11:46:05.837Z,44.10
2019-03-17T11:47:05.855Z,44.10
2019-03-17T11:48:05.894Z,43.60
2019-03-17T11:49:08.493Z,42.70
2019-03-17T11:50:05.400Z,42.70
2019-03-17T11:51:05.451Z,42.80
2019-03-17T11:52:08.054Z,42.70
2019-03-17T11:53:04.910Z,42.70
2019-03-17T11:54:06.040Z,42.90
2019-03-17T11:55:05.062Z,43.10
2019-03-17T11:56:05.087Z,43.20
2019-03-17T11:57:05.086Z,42.60
2019-03-17T11:58:05.120Z,42.80
2019-03-17T11:59:05.085Z,42.60
2019-03-17T12:00:05.061Z,43.20
2019-03-17T12:01:05.130Z,43.50
2019-03-17T12:02:05.122Z,43.50
2019-03-17T12:03:05.139Z,43.80
2019-03-17T12:04:07.787Z,44.60
2019-03-17T12:05:08.358Z,45.20
2019-03-17T12:06:05.217Z,45.40
2019-03-17T12:07:07.692Z,44.90
2019-03-17T12:08:08.129Z,45.00
2019-03-17T12:09:05.020Z,45.00
2019-03-17T12:10:05.051Z,44.70
2019-03-17T12:11:05.023Z,44.80
2019-03-17T12:12:07.631Z,44.50
2019-03-17T12:13:05.533Z,44.60
2019-03-17T12:14:05.526Z,44.40
2019-03-17T12:15:05.180Z,45.00
2019-03-17T12:16:05.211Z,45.50
2019-03-17T12:17:05.269Z,45.00
2019-03-17T12:18:05.367Z,44.60
2019-03-17T12:19:05.426Z,44.00
2019-03-17T12:20:08.009Z,43.70
2019-03-17T12:21:05.022Z,43.70
2019-03-17T12:22:09.824Z,43.60
2019-03-17T12:23:05.784Z,43.50
2019-03-17T12:24:05.731Z,43.60
2019-03-17T12:25:05.743Z,43.70
2019-03-17T12:26:08.337Z,43.80
2019-03-17T12:27:05.366Z,43.80
2019-03-17T12:28:05.440Z,43.60
2019-03-17T12:29:05.482Z,44.00
2019-03-17T12:30:05.555Z,44.20
2019-03-17T12:31:08.145Z,44.60
2019-03-17T12:32:05.026Z,44.60
2019-03-17T12:33:05.064Z,44.70
2019-03-17T12:34:05.029Z,44.90
2019-03-17T12:35:05.026Z,44.80
2019-03-17T12:36:04.984Z,44.80
2019-03-17T12:37:07.528Z,45.50
2019-03-17T12:38:08.019Z,45.60
2019-03-17T12:39:08.523Z,45.00
2019-03-17T12:40:05.463Z,45.00
2019-03-17T12:41:05.599Z,44.70
2019-03-17T12:42:08.147Z,44.70
2019-03-17T12:43:07.727Z,45.40
2019-03-17T12:44:05.611Z,45.40
2019-03-17T12:45:05.635Z,45.70
2019-03-17T12:46:08.151Z,44.70
2019-03-17T12:47:05.042Z,44.70
2019-03-17T12:48:05.064Z,44.80
2019-03-17T12:49:05.686Z,45.20
2019-03-17T12:50:05.842Z,45.00
2019-03-17T12:51:05.846Z,44.80
2019-03-17T12:52:05.837Z,45.00
2019-03-17T12:53:08.393Z,44.80